Time;durP1;ratioP1;P1;durP2;ratioP2;P2;SDS_P1;SDS_P2;PMS_P1;PMS_P2;Temp;Humidity;BMP_temperature;BMP_pressure;BME280_temperature;BME280_humidity;BME280_pressure;Samples;Min_cycle;Max_cycle;Signal;HPM_P1;HPM_P2
2023/02/25 00:01:13;;;;;;;;;;;22.20;59.20;;;;;;1542803;76;1152;-60
2023/02/25 00:03:18;;;;;;;;;;;22.20;59.40;;;;;;1543767;76;731;-60
2023/02/25 00:05:18;;;;;;;;;;;22.30;59.40;;;;;;1539155;76;1672;-61
2023/02/25 00:07:21;;;;;;;;;;;22.30;59.40;;;;;;1534334;76;732;-59
2023/02/25 00:09:23;;;;;;;;;;;22.30;59.40;;;;;;1541072;76;775;-60
2023/02/25 00:11:26;;;;;;;;;;;22.20;59.30;;;;;;1543063;76;1125;-60
2023/02/25 00:13:28;;;;;;;;;;;22.30;59.40;;;;;;1535635;76;742;-59
2023/02/25 00:15:30;;;;;;;;;;;22.30;59.40;;;;;;1540976;76;701;-60
2023/02/25 00:17:32;;;;;;;;;;;22.40;59.40;;;;;;1544176;76;1944;-61
2023/02/25 00:19:34;;;;;;;;;;;22.30;59.30;;;;;;1544190;76;1518;-60
2023/02/25 00:21:36;;;;;;;;;;;22.30;59.40;;;;;;1541996;76;1130;-60
2023/02/25 00:23:38;;;;;;;;;;;22.30;59.40;;;;;;1541803;76;745;-59
2023/02/25 00:25:40;;;;;;;;;;;22.20;59.30;;;;;;1542236;76;702;-60
2023/02/25 00:27:43;;;;;;;;;;;22.30;59.40;;;;;;1544798;76;772;-60
2023/02/25 00:29:44;;;;;;;;;;;22.20;59.40;;;;;;1535488;76;672;-60
2023/02/25 00:31:46;;;;;;;;;;;22.20;59.30;;;;;;1541445;76;1162;-61
2023/02/25 00:33:48;;;;;;;;;;;22.20;59.30;;;;;;1539613;76;1556;-60
2023/02/25 00:35:50;;;;;;;;;;;22.30;59.40;;;;;;1549937;76;692;-60
2023/02/25 00:37:53;;;;;;;;;;;22.30;59.40;;;;;;1535190;76;1944;-60
2023/02/25 00:39:55;;;;;;;;;;;22.20;59.20;;;;;;1538042;76;649;-60
2023/02/25 00:41:56;;;;;;;;;;;22.30;59.50;;;;;;1546926;76;1144;-59
2023/02/25 00:43:59;;;;;;;;;;;22.20;59.30;;;;;;1536227;76;711;-60
2023/02/25 00:46:01;;;;;;;;;;;22.30;59.40;;;;;;1537928;76;741;-59
2023/02/25 00:48:02;;;;;;;;;;;22.30;59.40;;;;;;1543476;76;1314;-59
2023/02/25 00:50:05;;;;;;;;;;;22.30;59.30;;;;;;1537659;76;836;-60
2023/02/25 00:52:07;;;;;;;;;;;22.30;59.30;;;;;;1543052;76;1149;-59
2023/02/25 00:54:09;;;;;;;;;;;22.30;59.20;;;;;;1540849;76;713;-61
2023/02/25 00:56:14;;;;;;;;;;;22.40;59.20;;;;;;1545191;76;1939;-60
2023/02/25 00:58:15;;;;;;;;;;;22.30;59.20;;;;;;1540059;76;1667;-59
2023/02/25 01:00:17;;;;;;;;;;;22.40;59.20;;;;;;1540843;76;694;-60
2023/02/25 01:02:19;;;;;;;;;;;22.30;59.10;;;;;;1540863;76;1642;-59
2023/02/25 01:04:21;;;;;;;;;;;22.30;59.20;;;;;;1537820;76;718;-60
2023/02/25 01:06:23;;;;;;;;;;;22.20;59.10;;;;;;1546038;76;705;-59
2023/02/25 01:08:25;;;;;;;;;;;22.20;59.10;;;;;;1540877;76;694;-62
2023/02/25 01:10:27;;;;;;;;;;;22.20;59.30;;;;;;1540721;76;1136;-61
2023/02/25 01:12:29;;;;;;;;;;;22.10;59.50;;;;;;1545401;76;714;-61
2023/02/25 01:14:31;;;;;;;;;;;22.20;59.40;;;;;;1537182;76;733;-62
2023/02/25 01:16:33;;;;;;;;;;;22.20;59.20;;;;;;1537565;76;1932;-60
2023/02/25 01:18:35;;;;;;;;;;;22.30;59.20;;;;;;1532896;76;742;-60
2023/02/25 01:20:37;;;;;;;;;;;22.30;59.10;;;;;;1542801;76;1145;-61
2023/02/25 01:22:40;;;;;;;;;;;22.30;59.00;;;;;;1538221;76;679;-61
2023/02/25 01:24:42;;;;;;;;;;;22.30;59.10;;;;;;1547396;76;680;-61
2023/02/25 01:27:30;;;;;;;;;;;22.20;59.20;;;;;;1609813;72;668;-59
2023/02/25 01:30:36;;;;;;;;;;;22.20;59.10;;;;;;1597470;72;1473;-59
2023/02/25 01:32:38;;;;;;;;;;;22.20;59.10;;;;;;1572319;75;695;-59
2023/02/25 01:34:40;;;;;;;;;;;22.20;59.20;;;;;;1588173;74;722;-59
2023/02/25 01:36:42;;;;;;;;;;;22.20;59.30;;;;;;1568250;74;712;-58
2023/02/25 01:38:43;;;;;;;;;;;22.20;59.20;;;;;;1532357;75;750;-58
2023/02/25 01:40:45;;;;;;;;;;;22.20;59.30;;;;;;1523307;77;1192;-58
2023/02/25 01:42:47;;;;;;;;;;;22.20;59.40;;;;;;1554918;75;678;-57
2023/02/25 01:45:08;;;;;;;;;;;22.20;59.40;;;;;;1545701;75;1547;-58
2023/02/25 01:47:11;;;;;;;;;;;22.10;59.30;;;;;;1517282;77;775;-60
2023/02/25 01:49:20;;;;;;;;;;;22.20;59.30;;;;;;1519662;77;1947;-60
2023/02/25 01:51:24;;;;;;;;;;;22.10;59.40;;;;;;1514755;77;1161;-60
2023/02/25 01:53:27;;;;;;;;;;;22.20;59.40;;;;;;1526073;77;2011;-60
2023/02/25 01:55:29;;;;;;;;;;;22.10;59.40;;;;;;1540446;76;699;-61
2023/02/25 01:57:31;;;;;;;;;;;22.20;59.50;;;;;;1538291;76;1559;-61
2023/02/25 01:59:33;;;;;;;;;;;22.20;59.40;;;;;;1545871;76;728;-60
2023/02/25 02:01:36;;;;;;;;;;;22.10;59.40;;;;;;1539954;76;1134;-60
2023/02/25 02:03:38;;;;;;;;;;;22.20;59.40;;;;;;1538902;76;674;-61
2023/02/25 02:05:56;;;;;;;;;;;22.10;59.50;;;;;;1520232;77;747;-61
2023/02/25 02:07:58;;;;;;;;;;;22.10;59.50;;;;;;1555509;75;743;-61
2023/02/25 02:10:01;;;;;;;;;;;22.20;59.60;;;;;;1533752;76;1912;-61
2023/02/25 02:12:04;;;;;;;;;;;22.20;59.60;;;;;;1523866;77;1738;-61
2023/02/25 02:14:06;;;;;;;;;;;22.10;59.70;;;;;;1570452;74;696;-61
2023/02/25 02:16:12;;;;;;;;;;;22.10;59.70;;;;;;1580835;74;737;-61
2023/02/25 02:18:14;;;;;;;;;;;22.10;59.80;;;;;;1588570;74;1837;-61
2023/02/25 02:20:21;;;;;;;;;;;22.10;59.90;;;;;;1536747;76;677;-61
2023/02/25 02:22:31;;;;;;;;;;;22.00;59.70;;;;;;1518034;77;706;-60
2023/02/25 02:24:43;;;;;;;;;;;22.10;59.80;;;;;;1518448;77;698;-60
2023/02/25 02:27:02;;;;;;;;;;;22.10;59.80;;;;;;1513094;76;2100;-60
2023/02/25 02:29:12;;;;;;;;;;;22.10;59.80;;;;;;1424271;81;1958;-60
2023/02/25 02:31:15;;;;;;;;;;;22.10;59.80;;;;;;1468114;77;2091;-61
2023/02/25 02:33:25;;;;;;;;;;;22.10;59.90;;;;;;1518501;76;673;-61
2023/02/25 02:35:28;;;;;;;;;;;22.10;59.70;;;;;;1517764;77;719;-61
2023/02/25 02:37:44;;;;;;;;;;;22.10;59.70;;;;;;1520910;77;1951;-60
2023/02/25 02:39:53;;;;;;;;;;;22.10;59.70;;;;;;1520334;77;1990;-61
2023/02/25 02:42:03;;;;;;;;;;;22.10;59.70;;;;;;1535670;76;1143;-60
2023/02/25 02:44:06;;;;;;;;;;;22.10;59.70;;;;;;1504761;77;712;-61
2023/02/25 02:46:10;;;;;;;;;;;22.10;59.70;;;;;;1488613;78;722;-61
2023/02/25 02:48:13;;;;;;;;;;;22.10;59.80;;;;;;1535069;76;704;-61
2023/02/25 02:50:19;;;;;;;;;;;22.10;59.80;;;;;;1520669;77;1951;-61
2023/02/25 02:52:22;;;;;;;;;;;22.10;59.80;;;;;;1582110;74;685;-61
2023/02/25 02:54:24;;;;;;;;;;;22.20;59.80;;;;;;1572341;74;1607;-61
2023/02/25 02:56:27;;;;;;;;;;;22.20;59.80;;;;;;1566577;74;703;-62
2023/02/25 02:58:33;;;;;;;;;;;22.10;59.70;;;;;;1576104;74;693;-61
2023/02/25 03:00:37;;;;;;;;;;;22.10;59.80;;;;;;1567332;74;1155;-61
2023/02/25 03:02:39;;;;;;;;;;;22.10;60.00;;;;;;1536355;76;724;-60
2023/02/25 03:04:41;;;;;;;;;;;22.10;60.00;;;;;;1543013;75;766;-60
2023/02/25 03:06:44;;;;;;;;;;;22.10;60.00;;;;;;1547709;76;687;-60
2023/02/25 03:08:59;;;;;;;;;;;22.10;60.00;;;;;;1545865;76;1636;-60
2023/02/25 03:11:01;;;;;;;;;;;22.10;60.00;;;;;;1541465;75;1987;-61
2023/02/25 03:13:03;;;;;;;;;;;22.10;60.00;;;;;;1510517;77;760;-60
2023/02/25 03:15:05;;;;;;;;;;;22.10;60.10;;;;;;1544769;76;771;-61
2023/02/25 03:17:09;;;;;;;;;;;22.10;60.20;;;;;;1537340;76;683;-60
2023/02/25 03:19:12;;;;;;;;;;;22.10;60.30;;;;;;1516551;77;663;-61
2023/02/25 03:21:15;;;;;;;;;;;22.10;60.40;;;;;;1554912;75;1145;-60
2023/02/25 03:23:18;;;;;;;;;;;22.10;60.60;;;;;;1536478;76;1806;-61
2023/02/25 03:25:21;;;;;;;;;;;22.10;60.70;;;;;;1561974;76;700;-61
2023/02/25 03:27:27;;;;;;;;;;;22.00;60.70;;;;;;1552016;76;688;-61
2023/02/25 03:29:29;;;;;;;;;;;22.00;60.80;;;;;;1549029;76;1947;-62
2023/02/25 03:31:38;;;;;;;;;;;22.00;60.80;;;;;;1540335;76;1116;-60
2023/02/25 03:33:46;;;;;;;;;;;22.10;61.00;;;;;;1538798;76;678;-60
2023/02/25 03:35:46;;;;;;;;;;;22.00;60.90;;;;;;1516356;77;1549;-62
2023/02/25 03:37:49;;;;;;;;;;;22.00;61.00;;;;;;1533074;76;676;-60
2023/02/25 03:39:52;;;;;;;;;;;22.10;61.10;;;;;;1532218;77;728;-62
2023/02/25 03:41:54;;;;;;;;;;;22.00;60.90;;;;;;1548597;76;1174;-59
2023/02/25 03:43:56;;;;;;;;;;;22.10;60.90;;;;;;1514309;78;760;-61
2023/02/25 03:45:58;;;;;;;;;;;22.10;60.90;;;;;;1511095;78;758;-61
2023/02/25 03:48:00;;;;;;;;;;;22.10;60.80;;;;;;1542903;76;673;-60
2023/02/25 03:50:06;;;;;;;;;;;22.00;60.70;;;;;;1524259;76;1951;-62
2023/02/25 03:52:10;;;;;;;;;;;22.10;61.10;;;;;;1519985;76;1124;-60
2023/02/25 03:54:12;;;;;;;;;;;22.10;61.00;;;;;;1551495;76;712;-61
2023/02/25 03:56:14;;;;;;;;;;;22.00;61.00;;;;;;1583140;74;686;-61
2023/02/25 03:58:16;;;;;;;;;;;22.00;60.90;;;;;;1578981;74;809;-61
2023/02/25 04:00:22;;;;;;;;;;;22.00;60.80;;;;;;1593252;73;683;-61
2023/02/25 04:02:26;;;;;;;;;;;22.00;60.80;;;;;;1576949;74;745;-62
2023/02/25 04:04:27;;;;;;;;;;;22.00;60.90;;;;;;1570375;74;1554;-60
2023/02/25 04:06:30;;;;;;;;;;;21.90;60.80;;;;;;1580016;74;686;-61
2023/02/25 04:08:32;;;;;;;;;;;22.00;60.80;;;;;;1583308;74;659;-61
2023/02/25 04:10:34;;;;;;;;;;;22.00;60.70;;;;;;1593394;73;1936;-61
2023/02/25 04:12:36;;;;;;;;;;;22.00;60.70;;;;;;1575108;74;677;-61
2023/02/25 04:14:38;;;;;;;;;;;22.00;60.80;;;;;;1576195;73;689;-61
2023/02/25 04:16:40;;;;;;;;;;;22.00;60.70;;;;;;1581611;74;710;-61
2023/02/25 04:18:42;;;;;;;;;;;22.00;60.60;;;;;;1549418;76;1572;-61
2023/02/25 04:20:44;;;;;;;;;;;22.00;60.60;;;;;;1578061;74;1077;-61
2023/02/25 04:22:45;;;;;;;;;;;22.00;60.80;;;;;;1579906;74;691;-61
2023/02/25 04:24:47;;;;;;;;;;;22.00;60.90;;;;;;1574528;73;715;-62
2023/02/25 04:26:57;;;;;;;;;;;22.00;60.80;;;;;;1572963;74;693;-61
2023/02/25 04:28:53;;;;;;;;;;;21.90;60.80;;;;;;1587534;74;1178;-62
2023/02/25 04:30:55;;;;;;;;;;;22.00;60.70;;;;;;1573432;73;1912;-61
2023/02/25 04:32:56;;;;;;;;;;;22.00;60.70;;;;;;1588359;73;1774;-62
2023/02/25 04:35:02;;;;;;;;;;;22.00;60.70;;;;;;1573144;74;679;-62
2023/02/25 04:37:03;;;;;;;;;;;22.00;60.70;;;;;;1586269;74;1672;-61
2023/02/25 04:39:05;;;;;;;;;;;22.00;60.70;;;;;;1584117;74;618;-61
2023/02/25 04:41:07;;;;;;;;;;;21.90;60.70;;;;;;1575327;74;1183;-61
2023/02/25 04:43:09;;;;;;;;;;;22.00;60.70;;;;;;1588847;73;689;-61
2023/02/25 04:45:11;;;;;;;;;;;22.00;60.60;;;;;;1583412;73;702;-63
2023/02/25 04:47:13;;;;;;;;;;;22.00;60.60;;;;;;1589317;74;1591;-61
2023/02/25 04:49:15;;;;;;;;;;;22.00;60.70;;;;;;1558777;76;696;-61
2023/02/25 04:51:16;;;;;;;;;;;22.00;60.60;;;;;;1555835;76;2237;-62
2023/02/25 04:53:18;;;;;;;;;;;22.00;60.70;;;;;;1553189;76;709;-61
2023/02/25 04:55:20;;;;;;;;;;;22.00;60.60;;;;;;1540246;76;780;-61
2023/02/25 04:57:22;;;;;;;;;;;22.00;60.70;;;;;;1548744;76;684;-62
2023/02/25 04:59:25;;;;;;;;;;;22.00;60.90;;;;;;1538005;76;726;-62
2023/02/25 05:01:27;;;;;;;;;;;22.00;60.80;;;;;;1556214;76;1283;-62
2023/02/25 05:03:29;;;;;;;;;;;22.00;60.90;;;;;;1524339;77;680;-63
2023/02/25 05:05:31;;;;;;;;;;;22.00;60.80;;;;;;1527169;77;947;-62
2023/02/25 05:07:33;;;;;;;;;;;22.00;60.70;;;;;;1539056;76;719;-62
2023/02/25 05:09:34;;;;;;;;;;;22.00;60.80;;;;;;1515968;77;670;-61
2023/02/25 05:11:36;;;;;;;;;;;22.10;60.80;;;;;;1548010;76;1930;-60
2023/02/25 05:13:38;;;;;;;;;;;22.10;60.80;;;;;;1542382;76;707;-59
2023/02/25 05:15:40;;;;;;;;;;;22.00;60.80;;;;;;1552952;76;1609;-62
2023/02/25 05:17:42;;;;;;;;;;;22.10;60.60;;;;;;1535740;76;721;-61
2023/02/25 05:19:44;;;;;;;;;;;22.10;60.50;;;;;;1521577;77;718;-60
2023/02/25 05:21:46;;;;;;;;;;;22.10;60.40;;;;;;1551368;76;1109;-60
2023/02/25 05:23:48;;;;;;;;;;;22.10;60.10;;;;;;1575456;73;675;-62
2023/02/25 05:25:50;;;;;;;;;;;22.20;59.90;;;;;;1581807;73;674;-60
2023/02/25 05:27:52;;;;;;;;;;;22.20;59.70;;;;;;1547242;74;738;-59
2023/02/25 05:29:54;;;;;;;;;;;22.10;59.50;;;;;;1544115;76;1664;-60
2023/02/25 05:31:56;;;;;;;;;;;22.20;59.60;;;;;;1529491;76;1133;-60
2023/02/25 05:33:58;;;;;;;;;;;22.30;59.50;;;;;;1514326;77;709;-60
2023/02/25 05:36:00;;;;;;;;;;;22.20;59.30;;;;;;1507479;77;684;-60
2023/02/25 05:38:02;;;;;;;;;;;22.30;59.30;;;;;;1537213;76;758;-61
2023/02/25 05:40:05;;;;;;;;;;;22.30;59.30;;;;;;1491867;77;750;-60
2023/02/25 05:42:07;;;;;;;;;;;22.20;59.00;;;;;;1558535;74;1224;-60
2023/02/25 05:44:10;;;;;;;;;;;22.20;59.10;;;;;;1561155;74;781;-60
2023/02/25 05:46:12;;;;;;;;;;;22.30;59.00;;;;;;1555409;74;965;-62
2023/02/25 05:48:14;;;;;;;;;;;22.30;59.00;;;;;;1564311;74;717;-60
2023/02/25 05:50:16;;;;;;;;;;;22.20;58.90;;;;;;1559221;74;1964;-60
2023/02/25 05:52:18;;;;;;;;;;;22.20;58.90;;;;;;1568872;74;1121;-60
2023/02/25 05:54:20;;;;;;;;;;;22.30;58.90;;;;;;1565321;74;757;-60
2023/02/25 05:56:23;;;;;;;;;;;22.30;58.90;;;;;;1559645;74;1528;-60
2023/02/25 05:58:25;;;;;;;;;;;22.30;58.90;;;;;;1574448;74;675;-60
2023/02/25 06:00:27;;;;;;;;;;;22.20;58.90;;;;;;1552368;75;1138;-61
2023/02/25 06:02:29;;;;;;;;;;;22.30;59.00;;;;;;1553799;74;673;-61
2023/02/25 06:04:31;;;;;;;;;;;22.30;59.00;;;;;;1557429;74;681;-61
2023/02/25 06:06:33;;;;;;;;;;;22.30;59.00;;;;;;1577663;74;684;-60
2023/02/25 06:08:35;;;;;;;;;;;22.20;58.80;;;;;;1570977;74;682;-60
2023/02/25 06:10:37;;;;;;;;;;;22.30;58.90;;;;;;1554040;74;2060;-60
2023/02/25 06:12:39;;;;;;;;;;;22.30;58.90;;;;;;1573604;74;733;-61
2023/02/25 06:14:41;;;;;;;;;;;22.30;58.50;;;;;;1552320;74;683;-61
2023/02/25 06:16:43;;;;;;;;;;;22.30;58.50;;;;;;1557121;74;705;-61
2023/02/25 06:18:45;;;;;;;;;;;22.30;58.40;;;;;;1552441;74;681;-60
2023/02/25 06:20:47;;;;;;;;;;;22.30;58.40;;;;;;1568168;74;1190;-61
2023/02/25 06:22:49;;;;;;;;;;;22.30;58.50;;;;;;1548947;74;876;-60
2023/02/25 06:24:51;;;;;;;;;;;22.30;58.80;;;;;;1556227;74;1557;-61
2023/02/25 06:26:53;;;;;;;;;;;22.30;58.50;;;;;;1562923;74;721;-60
2023/02/25 06:28:55;;;;;;;;;;;22.30;58.30;;;;;;1544336;76;641;-61
2023/02/25 06:30:57;;;;;;;;;;;22.40;58.10;;;;;;1549919;74;1939;-61
2023/02/25 06:32:58;;;;;;;;;;;22.40;58.10;;;;;;1583835;74;1092;-61
2023/02/25 06:35:00;;;;;;;;;;;22.40;58.00;;;;;;1575839;74;750;-60
2023/02/25 06:37:02;;;;;;;;;;;22.50;57.90;;;;;;1583446;74;674;-61
2023/02/25 06:39:04;;;;;;;;;;;22.50;57.90;;;;;;1580043;74;1569;-62
2023/02/25 06:41:06;;;;;;;;;;;22.50;57.80;;;;;;1579261;73;1195;-61
2023/02/25 06:43:08;;;;;;;;;;;22.50;58.00;;;;;;1583387;74;628;-61
2023/02/25 06:45:10;;;;;;;;;;;22.50;57.80;;;;;;1581912;73;658;-61
2023/02/25 06:47:12;;;;;;;;;;;22.50;57.70;;;;;;1591033;74;660;-60
2023/02/25 06:49:14;;;;;;;;;;;22.50;57.70;;;;;;1584870;74;694;-60
2023/02/25 06:51:16;;;;;;;;;;;22.50;57.60;;;;;;1555045;76;1951;-60
2023/02/25 06:53:18;;;;;;;;;;;22.50;57.60;;;;;;1529926;76;1532;-61
2023/02/25 06:55:20;;;;;;;;;;;22.50;57.50;;;;;;1526152;77;741;-61
2023/02/25 06:57:22;;;;;;;;;;;22.50;57.30;;;;;;1548492;76;763;-61
2023/02/25 06:59:24;;;;;;;;;;;22.60;57.30;;;;;;1560895;76;679;-60
2023/02/25 07:01:25;;;;;;;;;;;22.60;57.20;;;;;;1528424;76;1218;-61
2023/02/25 07:03:27;;;;;;;;;;;22.60;57.20;;;;;;1538272;76;697;-61
2023/02/25 07:05:29;;;;;;;;;;;22.60;57.10;;;;;;1540050;76;977;-60
2023/02/25 07:07:31;;;;;;;;;;;22.60;57.00;;;;;;1546993;76;1369;-61
2023/02/25 07:09:33;;;;;;;;;;;22.60;57.00;;;;;;1525557;76;706;-61
2023/02/25 07:11:35;;;;;;;;;;;22.60;57.00;;;;;;1515972;77;1960;-61
2023/02/25 07:13:37;;;;;;;;;;;22.60;57.00;;;;;;1550979;76;681;-60
2023/02/25 07:15:39;;;;;;;;;;;22.60;57.30;;;;;;1535778;76;689;-60
2023/02/25 07:17:41;;;;;;;;;;;22.50;57.50;;;;;;1536236;76;640;-61
2023/02/25 07:19:43;;;;;;;;;;;22.60;57.40;;;;;;1521098;76;779;-61
2023/02/25 07:21:44;;;;;;;;;;;22.60;57.20;;;;;;1556760;76;1610;-60
2023/02/25 07:23:46;;;;;;;;;;;22.60;57.10;;;;;;1549222;76;736;-61
2023/02/25 07:25:49;;;;;;;;;;;22.60;57.20;;;;;;1545179;76;738;-60
2023/02/25 07:27:53;;;;;;;;;;;22.60;57.30;;;;;;1543030;76;647;-62
2023/02/25 07:29:54;;;;;;;;;;;22.60;57.10;;;;;;1560619;76;1674;-60
2023/02/25 07:31:56;;;;;;;;;;;22.60;57.20;;;;;;1554304;76;1932;-60
2023/02/25 07:34:03;;;;;;;;;;;22.60;57.30;;;;;;1524359;76;1054;-61
2023/02/25 07:36:01;;;;;;;;;;;22.60;57.20;;;;;;1509064;77;1541;-62
2023/02/25 07:38:03;;;;;;;;;;;22.60;57.30;;;;;;1513791;77;750;-62
2023/02/25 07:40:09;;;;;;;;;;;22.50;57.50;;;;;;1520684;77;665;-62
2023/02/25 07:42:09;;;;;;;;;;;22.50;57.50;;;;;;1504951;77;1168;-60
2023/02/25 07:44:11;;;;;;;;;;;22.50;57.60;;;;;;1511104;77;715;-62
2023/02/25 07:46:13;;;;;;;;;;;22.50;57.80;;;;;;1534792;76;695;-61
2023/02/25 07:48:15;;;;;;;;;;;22.60;57.50;;;;;;1523391;76;743;-61
2023/02/25 07:50:17;;;;;;;;;;;22.60;57.10;;;;;;1491521;78;1570;-61
2023/02/25 07:52:18;;;;;;;;;;;22.60;56.80;;;;;;1490886;77;1949;-62
2023/02/25 07:54:21;;;;;;;;;;;22.60;56.80;;;;;;1510739;77;750;-62
2023/02/25 07:56:24;;;;;;;;;;;22.70;56.80;;;;;;1560076;74;690;-61
2023/02/25 07:58:27;;;;;;;;;;;22.60;56.60;;;;;;1525963;76;756;-61
2023/02/25 08:00:29;;;;;;;;;;;22.60;56.50;;;;;;1531025;76;1141;-62
2023/02/25 08:02:31;;;;;;;;;;;22.60;56.50;;;;;;1529653;77;708;-61
2023/02/25 08:04:33;;;;;;;;;;;22.70;56.50;;;;;;1530372;77;1303;-62
2023/02/25 08:06:36;;;;;;;;;;;22.60;56.50;;;;;;1525438;77;704;-61
2023/02/25 08:08:38;;;;;;;;;;;22.60;56.50;;;;;;1529921;77;684;-61
2023/02/25 08:10:40;;;;;;;;;;;22.60;56.40;;;;;;1529044;76;1142;-62
2023/02/25 08:12:42;;;;;;;;;;;22.60;56.40;;;;;;1501792;77;1947;-62
2023/02/25 08:14:45;;;;;;;;;;;22.60;56.50;;;;;;1504256;77;696;-62
2023/02/25 08:16:47;;;;;;;;;;;22.50;56.40;;;;;;1497989;77;703;-61
2023/02/25 08:18:49;;;;;;;;;;;22.50;56.40;;;;;;1511515;77;1825;-62
2023/02/25 08:20:51;;;;;;;;;;;22.50;56.50;;;;;;1565442;74;1140;-62
2023/02/25 08:22:55;;;;;;;;;;;22.50;56.60;;;;;;1563071;74;738;-61
2023/02/25 08:24:56;;;;;;;;;;;22.40;56.60;;;;;;1579073;74;1699;-60
2023/02/25 08:26:58;;;;;;;;;;;22.40;56.70;;;;;;1568575;74;697;-61
2023/02/25 08:29:00;;;;;;;;;;;22.40;56.70;;;;;;1560618;74;770;-60
2023/02/25 08:31:02;;;;;;;;;;;22.40;56.80;;;;;;1560284;74;1947;-61
2023/02/25 08:33:03;;;;;;;;;;;22.30;56.60;;;;;;1527988;76;1317;-61
2023/02/25 08:35:05;;;;;;;;;;;22.40;56.70;;;;;;1510878;78;686;-62
2023/02/25 08:37:10;;;;;;;;;;;22.40;56.70;;;;;;1500763;77;671;-60
2023/02/25 08:39:12;;;;;;;;;;;22.40;56.60;;;;;;1536656;76;722;-60
2023/02/25 08:41:14;;;;;;;;;;;22.50;56.80;;;;;;1537977;76;1134;-60
2023/02/25 08:43:16;;;;;;;;;;;22.50;56.60;;;;;;1531452;76;814;-61
2023/02/25 08:45:19;;;;;;;;;;;22.50;56.50;;;;;;1518239;77;1562;-60
2023/02/25 08:47:21;;;;;;;;;;;22.50;56.40;;;;;;1517291;77;683;-62
2023/02/25 08:49:23;;;;;;;;;;;22.50;56.10;;;;;;1519275;77;744;-62
2023/02/25 08:51:32;;;;;;;;;;;22.50;56.00;;;;;;1510269;77;1943;-62
2023/02/25 08:53:29;;;;;;;;;;;22.40;55.80;;;;;;1512629;77;1618;-61
2023/02/25 08:55:31;;;;;;;;;;;22.50;56.00;;;;;;1510905;77;1509;-61
2023/02/25 08:57:33;;;;;;;;;;;22.60;55.70;;;;;;1509429;77;1513;-61
2023/02/25 08:59:35;;;;;;;;;;;22.50;55.70;;;;;;1537945;76;1415;-62
2023/02/25 09:01:47;;;;;;;;;;;22.50;55.50;;;;;;1538126;76;1554;-61
2023/02/25 09:03:52;;;;;;;;;;;22.50;55.50;;;;;;1510717;78;1188;-61
2023/02/25 09:05:54;;;;;;;;;;;22.60;55.30;;;;;;1544778;76;1429;-61
2023/02/25 09:07:57;;;;;;;;;;;22.50;55.20;;;;;;1508902;78;1485;-61
2023/02/25 09:09:59;;;;;;;;;;;22.60;55.10;;;;;;1525299;76;1537;-61
2023/02/25 09:12:04;;;;;;;;;;;22.50;55.00;;;;;;1527410;76;1961;-61
2023/02/25 09:14:05;;;;;;;;;;;22.50;54.70;;;;;;1519938;76;1754;-62
2023/02/25 09:16:07;;;;;;;;;;;22.50;54.50;;;;;;1524330;77;1171;-61
2023/02/25 09:18:10;;;;;;;;;;;22.50;54.60;;;;;;1515001;78;1502;-62
2023/02/25 09:20:12;;;;;;;;;;;22.50;54.40;;;;;;1502993;78;1116;-61
2023/02/25 09:22:14;;;;;;;;;;;22.50;54.10;;;;;;1527605;76;1174;-61
2023/02/25 09:24:16;;;;;;;;;;;22.50;54.10;;;;;;1530368;76;1493;-62
2023/02/25 09:26:18;;;;;;;;;;;22.50;54.00;;;;;;1527079;76;1170;-61
2023/02/25 09:28:20;;;;;;;;;;;22.50;53.60;;;;;;1529858;76;1513;-61
2023/02/25 09:30:22;;;;;;;;;;;22.40;53.80;;;;;;1544636;76;1142;-62
2023/02/25 09:32:24;;;;;;;;;;;22.40;53.70;;;;;;1535483;76;1921;-61
2023/02/25 09:34:26;;;;;;;;;;;22.40;53.70;;;;;;1547810;76;1492;-61
2023/02/25 09:36:28;;;;;;;;;;;22.40;53.40;;;;;;1498856;78;1555;-61
2023/02/25 09:38:30;;;;;;;;;;;22.40;53.30;;;;;;1546107;76;1129;-61
2023/02/25 09:40:32;;;;;;;;;;;22.40;53.30;;;;;;1532252;76;1152;-61
2023/02/25 09:42:53;;;;;;;;;;;22.30;53.30;;;;;;1530190;76;1483;-67
2023/02/25 09:44:59;;;;;;;;;;;22.40;53.30;;;;;;1536754;76;1565;-66
2023/02/25 09:47:03;;;;;;;;;;;22.40;53.10;;;;;;1537410;75;1649;-61
2023/02/25 09:49:08;;;;;;;;;;;22.40;53.20;;;;;;1539913;76;1106;-62
2023/02/25 09:51:14;;;;;;;;;;;22.40;53.40;;;;;;1539167;76;1519;-61
2023/02/25 09:53:20;;;;;;;;;;;22.40;52.80;;;;;;1538529;76;1954;-60
2023/02/25 09:55:23;;;;;;;;;;;22.40;52.80;;;;;;1549888;76;1506;-60
2023/02/25 09:57:25;;;;;;;;;;;22.30;52.80;;;;;;1581247;74;1160;-61
2023/02/25 09:59:27;;;;;;;;;;;22.50;52.80;;;;;;1583141;73;1103;-60
2023/02/25 10:01:34;;;;;;;;;;;22.40;52.40;;;;;;1589964;74;1348;-60
2023/02/25 10:03:43;;;;;;;;;;;22.40;52.70;;;;;;1575596;74;1023;-60
2023/02/25 10:05:47;;;;;;;;;;;22.40;52.80;;;;;;1576995;74;1359;-60
2023/02/25 10:07:53;;;;;;;;;;;22.30;52.90;;;;;;1587729;73;950;-60
2023/02/25 10:10:15;;;;;;;;;;;22.30;53.10;;;;;;1573273;74;1511;-61
2023/02/25 10:12:21;;;;;;;;;;;22.40;53.10;;;;;;1567670;74;1943;-61
2023/02/25 10:14:34;;;;;;;;;;;22.40;53.20;;;;;;1577180;73;2148;-60
2023/02/25 10:16:43;;;;;;;;;;;22.40;53.40;;;;;;1573281;74;1174;-60
2023/02/25 10:18:49;;;;;;;;;;;22.40;53.40;;;;;;1588073;74;1119;-60
2023/02/25 10:21:02;;;;;;;;;;;22.40;53.40;;;;;;1572685;74;1142;-61
2023/02/25 10:23:14;;;;;;;;;;;22.30;53.70;;;;;;1573952;73;1855;-60
2023/02/25 10:25:18;;;;;;;;;;;22.40;54.20;;;;;;1572645;74;1897;-61
2023/02/25 10:27:24;;;;;;;;;;;22.30;55.10;;;;;;1573165;74;1109;-64
2023/02/25 10:29:28;;;;;;;;;;;22.30;55.50;;;;;;1586495;74;1164;-62
2023/02/25 10:31:31;;;;;;;;;;;22.40;55.60;;;;;;1571656;73;1453;-62
2023/02/25 10:33:37;;;;;;;;;;;22.50;55.80;;;;;;1577115;74;1939;-63
2023/02/25 10:35:39;;;;;;;;;;;22.50;55.70;;;;;;1573184;74;1271;-63
2023/02/25 10:37:41;;;;;;;;;;;22.50;55.80;;;;;;1575216;73;1664;-64
2023/02/25 10:39:47;;;;;;;;;;;22.60;56.00;;;;;;1581808;74;1244;-65
2023/02/25 10:41:48;;;;;;;;;;;22.50;56.40;;;;;;1585039;73;1644;-65
2023/02/25 10:43:50;;;;;;;;;;;22.50;56.50;;;;;;1575511;73;1452;-64
2023/02/25 10:45:54;;;;;;;;;;;22.60;56.50;;;;;;1581430;74;1126;-64
2023/02/25 10:48:06;;;;;;;;;;;22.60;56.50;;;;;;1550653;76;1705;-63
2023/02/25 10:50:12;;;;;;;;;;;22.60;55.40;;;;;;1588210;74;1174;-64
2023/02/25 10:52:16;;;;;;;;;;;22.60;54.40;;;;;;1580264;73;1953;-63
2023/02/25 10:54:18;;;;;;;;;;;22.60;52.70;;;;;;1546660;76;1111;-63
2023/02/25 10:56:20;;;;;;;;;;;22.60;52.90;;;;;;1524124;77;1128;-63
2023/02/25 10:58:26;;;;;;;;;;;22.60;52.50;;;;;;1587214;74;1516;-63
2023/02/25 11:00:29;;;;;;;;;;;22.60;52.80;;;;;;1586259;73;1179;-63
2023/02/25 11:02:31;;;;;;;;;;;22.60;53.10;;;;;;1546886;76;1512;-65
2023/02/25 11:04:34;;;;;;;;;;;22.70;53.50;;;;;;1576884;74;1137;-63
2023/02/25 11:06:36;;;;;;;;;;;22.60;53.90;;;;;;1577609;74;1599;-63
2023/02/25 11:08:38;;;;;;;;;;;22.70;54.00;;;;;;1584692;74;1081;-63
2023/02/25 11:10:40;;;;;;;;;;;22.70;54.10;;;;;;1586703;73;1148;-64
2023/02/25 11:12:46;;;;;;;;;;;22.70;54.00;;;;;;1588544;74;1942;-64
2023/02/25 11:14:48;;;;;;;;;;;22.70;53.90;;;;;;1551446;76;1725;-62
2023/02/25 11:16:50;;;;;;;;;;;22.70;53.90;;;;;;1537656;76;1429;-63
2023/02/25 11:18:53;;;;;;;;;;;22.70;54.00;;;;;;1518472;76;1502;-64
2023/02/25 11:20:55;;;;;;;;;;;22.70;53.90;;;;;;1572009;74;1526;-62
2023/02/25 11:22:57;;;;;;;;;;;22.70;54.00;;;;;;1580646;73;1154;-63
2023/02/25 11:25:00;;;;;;;;;;;22.80;53.90;;;;;;1592136;74;1539;-63
2023/02/25 11:27:02;;;;;;;;;;;22.70;53.90;;;;;;1583147;74;1198;-65
2023/02/25 11:29:09;;;;;;;;;;;22.70;54.20;;;;;;1577887;74;1062;-63
2023/02/25 11:31:22;;;;;;;;;;;22.80;54.10;;;;;;1586863;73;1881;-63
2023/02/25 11:33:28;;;;;;;;;;;22.90;54.10;;;;;;1576709;74;1942;-64
2023/02/25 11:35:34;;;;;;;;;;;22.90;53.90;;;;;;1588056;74;1602;-63
2023/02/25 11:37:36;;;;;;;;;;;22.90;53.90;;;;;;1585765;74;1606;-63
2023/02/25 11:39:38;;;;;;;;;;;22.90;53.80;;;;;;1550788;76;1532;-63
2023/02/25 11:41:40;;;;;;;;;;;23.00;53.60;;;;;;1522710;77;1099;-65
2023/02/25 11:43:41;;;;;;;;;;;22.90;53.60;;;;;;1526690;76;684;-66
2023/02/25 11:45:48;;;;;;;;;;;23.00;53.70;;;;;;1575847;73;657;-64
2023/02/25 11:47:50;;;;;;;;;;;23.00;53.70;;;;;;1587465;74;1555;-65
2023/02/25 11:49:59;;;;;;;;;;;22.90;53.10;;;;;;1592921;74;694;-63
2023/02/25 11:52:08;;;;;;;;;;;23.00;53.10;;;;;;1575981;73;1149;-63
2023/02/25 11:54:28;;;;;;;;;;;23.00;52.80;;;;;;1589743;74;1914;-66
2023/02/25 11:56:31;;;;;;;;;;;23.00;52.80;;;;;;1536937;76;1067;-65
2023/02/25 11:58:41;;;;;;;;;;;23.00;52.80;;;;;;1544991;76;693;-64
2023/02/25 12:00:47;;;;;;;;;;;23.00;52.80;;;;;;1552616;76;1738;-65
2023/02/25 12:02:53;;;;;;;;;;;23.00;52.70;;;;;;1519742;76;1905;-64
2023/02/25 12:05:09;;;;;;;;;;;23.00;52.70;;;;;;1511128;77;2137;-66
2023/02/25 12:07:22;;;;;;;;;;;23.00;52.70;;;;;;1515186;77;673;-63
2023/02/25 12:09:35;;;;;;;;;;;23.00;52.70;;;;;;1577777;73;676;-64
2023/02/25 12:11:47;;;;;;;;;;;23.00;52.70;;;;;;1585653;74;1094;-65
2023/02/25 12:13:57;;;;;;;;;;;22.90;52.80;;;;;;1574000;73;2216;-64
2023/02/25 12:16:06;;;;;;;;;;;23.00;52.80;;;;;;1577894;74;1713;-66